Aviation Digital Data Service (ADDS)

Output produced by METARs form (1925 UTC 26 April 2015)
found at http://aviationweather.gov/adds/metars/
 
KRME 261726Z 2618/2718 29008KT P6SM OVC060 
     FM262300 30006KT P6SM SCT060 
     FM270300 30003KT P6SM OVC040 
     FM270700 29003KT P6SM OVC015 
     TEMPO 2709/2713 -SHRASN OVC009 
     FM271400 30010KT P6SM OVC025